createdAt,value
2023-03-22T00:01:53.876Z,44.06
2023-03-22T00:04:39.633Z,44.15
2023-03-22T00:07:26.650Z,44.05
2023-03-22T00:10:12.628Z,44.10
2023-03-22T00:12:58.386Z,44.28
2023-03-22T00:15:49.208Z,44.20
2023-03-22T00:18:35.188Z,44.42
2023-03-22T00:21:21.372Z,44.21
2023-03-22T00:24:07.645Z,44.30
2023-03-22T00:26:53.682Z,44.60
2023-03-22T00:29:39.508Z,44.70
2023-03-22T00:32:25.485Z,44.68
2023-03-22T00:35:12.250Z,44.86
2023-03-22T00:37:58.576Z,44.91
2023-03-22T00:40:44.859Z,44.94
2023-03-22T00:43:30.633Z,45.12
2023-03-22T00:46:19.384Z,45.04
2023-03-22T00:49:05.904Z,44.77
2023-03-22T00:51:51.801Z,45.06
2023-03-22T00:54:37.635Z,45.05
2023-03-22T00:57:23.948Z,45.26
2023-03-22T01:00:16.209Z,45.05
2023-03-22T01:03:04.893Z,45.20
2023-03-22T01:05:55.525Z,45.31
2023-03-22T01:08:42.054Z,45.26
2023-03-22T01:11:28.428Z,45.17
2023-03-22T01:14:14.238Z,45.20
2023-03-22T01:17:00.465Z,45.09
2023-03-22T01:19:46.692Z,45.19
2023-03-22T01:22:33.109Z,44.92
2023-03-22T01:25:19.079Z,45.53
2023-03-22T01:28:06.917Z,45.20
2023-03-22T01:30:53.075Z,45.23
2023-03-22T01:33:38.917Z,45.50
2023-03-22T01:36:24.817Z,45.37
2023-03-22T01:39:11.122Z,45.52
2023-03-22T01:41:59.229Z,45.37
2023-03-22T01:45:13.778Z,45.63
2023-03-22T01:48:22.144Z,45.63
2023-03-22T01:51:11.527Z,45.38
2023-03-22T01:54:18.717Z,45.55
2023-03-22T01:57:05.393Z,45.60
2023-03-22T01:59:57.694Z,45.62
2023-03-22T02:02:59.811Z,45.86
2023-03-22T02:05:54.184Z,45.67
2023-03-22T02:08:43.214Z,46.07
2023-03-22T02:11:41.557Z,45.79
2023-03-22T02:15:03.409Z,46.31
2023-03-22T02:18:16.466Z,45.88
2023-03-22T02:21:27.157Z,46.09
2023-03-22T02:24:32.919Z,46.04
2023-03-22T02:27:53.137Z,46.18
2023-03-22T02:31:17.774Z,46.08
2023-03-22T02:34:15.954Z,46.02
2023-03-22T02:37:23.107Z,46.01
2023-03-22T02:40:16.768Z,46.55
2023-03-22T02:43:18.891Z,46.20
2023-03-22T02:46:09.056Z,46.21
2023-03-22T02:49:07.848Z,46.43
2023-03-22T02:52:00.310Z,46.68
2023-03-22T02:54:58.278Z,46.80
2023-03-22T02:57:53.131Z,46.75
2023-03-22T03:00:40.757Z,46.35
2023-03-22T03:03:30.175Z,46.67
2023-03-22T03:06:19.352Z,46.62
2023-03-22T03:09:05.568Z,47.09
2023-03-22T03:11:53.489Z,46.70
2023-03-22T03:14:42.297Z,46.59
2023-03-22T03:17:37.508Z,46.89
2023-03-22T03:20:39.063Z,46.83
2023-03-22T03:23:38.201Z,46.91
2023-03-22T03:26:24.046Z,47.21
2023-03-22T03:29:28.745Z,47.07
2023-03-22T03:32:14.560Z,47.31
2023-03-22T03:35:06.750Z,46.99
2023-03-22T03:37:57.733Z,46.56
2023-03-22T03:40:50.483Z,47.04
2023-03-22T03:43:37.333Z,47.11
2023-03-22T03:46:24.518Z,47.15
2023-03-22T03:49:12.469Z,47.21
2023-03-22T03:51:59.890Z,47.16
2023-03-22T03:54:46.004Z,47.05
2023-03-22T03:57:36.943Z,46.92
2023-03-22T04:00:23.240Z,47.24
2023-03-22T04:03:27.910Z,47.02
2023-03-22T04:06:34.758Z,47.04
2023-03-22T04:09:29.543Z,47.37
2023-03-22T04:12:20.989Z,47.69
2023-03-22T04:15:36.286Z,47.03
2023-03-22T04:18:29.719Z,47.66
2023-03-22T04:21:19.836Z,47.16
2023-03-22T04:24:13.626Z,47.21
2023-03-22T04:27:01.953Z,47.70
2023-03-22T04:29:58.106Z,47.39
2023-03-22T04:33:07.188Z,47.38
2023-03-22T04:36:17.536Z,47.42
2023-03-22T04:39:35.772Z,47.01
2023-03-22T04:42:57.509Z,47.29
2023-03-22T04:46:04.419Z,47.14
2023-03-22T04:48:58.182Z,47.32
2023-03-22T04:51:44.063Z,47.47
2023-03-22T04:54:53.088Z,47.41
2023-03-22T04:57:38.885Z,47.23
2023-03-22T05:00:24.663Z,47.69
2023-03-22T05:03:12.162Z,47.64
2023-03-22T05:06:06.613Z,47.56
2023-03-22T05:09:24.843Z,47.42
2023-03-22T05:12:12.607Z,47.87
2023-03-22T05:15:06.756Z,47.60
2023-03-22T05:17:56.336Z,47.43
2023-03-22T05:20:43.442Z,47.43
2023-03-22T05:23:43.086Z,47.77
2023-03-22T05:26:30.712Z,47.54
2023-03-22T05:29:17.078Z,47.38
2023-03-22T05:32:19.674Z,47.62
2023-03-22T05:35:07.677Z,47.88
2023-03-22T05:37:58.466Z,47.89
2023-03-22T05:40:47.246Z,47.64
2023-03-22T05:43:33.771Z,47.75
2023-03-22T05:46:19.977Z,47.62
2023-03-22T05:49:28.413Z,47.72
2023-03-22T05:52:15.419Z,47.22
2023-03-22T05:55:27.640Z,47.85
2023-03-22T05:58:19.229Z,47.51
2023-03-22T06:01:09.424Z,47.57
2023-03-22T06:04:18.766Z,47.33
2023-03-22T06:07:15.461Z,47.54
2023-03-22T06:10:07.894Z,47.63
2023-03-22T06:12:55.467Z,47.49
2023-03-22T06:15:47.884Z,47.54
2023-03-22T06:18:40.795Z,47.33
2023-03-22T06:21:30.474Z,47.39
2023-03-22T06:24:16.752Z,47.53
2023-03-22T06:27:02.945Z,47.40
2023-03-22T06:29:51.026Z,47.42
2023-03-22T06:32:41.796Z,47.05
2023-03-22T06:35:28.196Z,47.28
2023-03-22T06:38:14.196Z,47.49
2023-03-22T06:41:00.066Z,47.04
2023-03-22T06:43:46.486Z,47.09
2023-03-22T06:50:04.100Z,46.89
2023-03-22T06:53:12.451Z,46.88
2023-03-22T06:55:59.203Z,46.66
2023-03-22T06:58:46.053Z,46.94
2023-03-22T07:01:32.416Z,47.14
2023-03-22T07:04:20.073Z,46.50
2023-03-22T07:07:07.478Z,46.49
2023-03-22T07:09:54.775Z,46.43
2023-03-22T07:12:41.128Z,46.41
2023-03-22T07:15:33.012Z,46.21
2023-03-22T07:18:24.432Z,45.96
2023-03-22T07:21:10.373Z,46.06
2023-03-22T07:23:59.171Z,46.25
2023-03-22T07:26:47.948Z,45.73
2023-03-22T07:29:38.373Z,45.42
2023-03-22T07:32:25.357Z,45.71
2023-03-22T07:35:24.999Z,45.40
2023-03-22T07:38:13.115Z,45.10
2023-03-22T07:41:00.604Z,45.19
2023-03-22T07:44:15.277Z,45.31
2023-03-22T07:47:10.949Z,45.18
2023-03-22T07:50:02.832Z,45.21
2023-03-22T07:52:52.864Z,45.00
2023-03-22T07:55:39.315Z,45.12
2023-03-22T07:58:25.270Z,44.84
2023-03-22T08:01:11.331Z,45.02
2023-03-22T08:04:16.023Z,44.52
2023-03-22T08:07:25.062Z,44.33
2023-03-22T08:10:11.934Z,43.99
2023-03-22T08:12:57.651Z,44.13
2023-03-22T08:15:45.517Z,43.96
2023-03-22T08:18:32.316Z,43.99
2023-03-22T08:21:18.261Z,43.58
2023-03-22T08:24:09.760Z,43.69
2023-03-22T08:27:28.115Z,43.83
2023-03-22T08:30:16.649Z,44.10
2023-03-22T08:33:02.883Z,43.88
2023-03-22T08:35:48.741Z,43.46
2023-03-22T08:38:34.801Z,43.31
2023-03-22T08:41:21.124Z,43.32
2023-03-22T08:44:07.208Z,43.17
2023-03-22T08:46:54.796Z,42.87
2023-03-22T08:49:41.862Z,43.07
2023-03-22T08:52:37.949Z,42.71
2023-03-22T08:55:28.408Z,42.57
2023-03-22T08:58:32.560Z,42.32
2023-03-22T09:01:41.742Z,42.43
2023-03-22T09:04:28.919Z,42.61
2023-03-22T09:07:17.562Z,42.07
2023-03-22T09:10:08.862Z,41.98
2023-03-22T09:12:57.729Z,41.47
2023-03-22T09:15:45.139Z,41.56
2023-03-22T09:18:38.319Z,41.62
2023-03-22T09:21:29.918Z,41.31
2023-03-22T09:24:36.122Z,41.16
2023-03-22T09:27:23.135Z,40.44
2023-03-22T09:30:10.330Z,40.55
2023-03-22T09:32:56.398Z,40.87
2023-03-22T09:35:43.674Z,40.23
2023-03-22T09:38:33.909Z,40.20
2023-03-22T09:41:52.766Z,38.43
2023-03-22T09:44:43.963Z,39.97
2023-03-22T09:47:51.741Z,39.33
2023-03-22T09:50:43.158Z,39.87
2023-03-22T09:53:32.612Z,40.25
2023-03-22T09:56:26.160Z,39.66
2023-03-22T09:59:44.380Z,39.77
2023-03-22T10:02:45.841Z,39.25
2023-03-22T10:05:39.893Z,38.94
2023-03-22T10:08:33.918Z,39.16
2023-03-22T10:12:05.114Z,39.15
2023-03-22T10:15:00.443Z,38.33
2023-03-22T10:17:51.451Z,38.99
2023-03-22T10:20:42.405Z,39.13
2023-03-22T10:23:44.232Z,38.81
2023-03-22T10:26:42.720Z,38.57
2023-03-22T10:29:38.966Z,37.57
2023-03-22T10:33:04.608Z,38.23
2023-03-22T10:35:51.556Z,37.83
2023-03-22T10:38:43.861Z,37.68
2023-03-22T10:41:30.395Z,37.69
2023-03-22T10:44:18.306Z,37.93
2023-03-22T10:47:08.233Z,37.97
2023-03-22T10:49:56.194Z,37.94
2023-03-22T10:52:50.345Z,37.94
2023-03-22T10:55:41.844Z,37.54
2023-03-22T10:58:35.024Z,37.60
2023-03-22T11:01:32.835Z,38.02
2023-03-22T11:04:20.727Z,37.77
2023-03-22T11:07:06.785Z,37.42
2023-03-22T11:10:22.015Z,37.21
2023-03-22T11:13:07.613Z,37.39
2023-03-22T11:16:02.409Z,37.05
2023-03-22T11:18:48.776Z,36.66
2023-03-22T11:21:35.106Z,36.99
2023-03-22T11:24:22.256Z,36.88
2023-03-22T11:27:33.123Z,36.85
2023-03-22T11:30:29.171Z,36.50
2023-03-22T11:33:18.605Z,36.46
2023-03-22T11:36:16.455Z,36.43
2023-03-22T11:39:07.889Z,36.23
2023-03-22T11:41:57.719Z,36.53
2023-03-22T11:44:44.632Z,36.26
2023-03-22T11:47:34.641Z,35.90
2023-03-22T11:50:32.924Z,35.89
2023-03-22T11:53:23.206Z,35.82
2023-03-22T11:56:11.444Z,35.58
2023-03-22T11:59:16.653Z,35.78
2023-03-22T12:02:26.858Z,35.82
2023-03-22T12:05:19.340Z,35.88
2023-03-22T12:08:17.014Z,35.90
2023-03-22T12:11:06.649Z,35.87
2023-03-22T12:14:02.039Z,35.74
2023-03-22T12:16:56.226Z,35.81
2023-03-22T12:19:48.628Z,35.20
2023-03-22T12:22:35.622Z,36.24
2023-03-22T12:25:25.780Z,35.71
2023-03-22T12:28:18.807Z,35.67
2023-03-22T12:31:08.048Z,35.47
2023-03-22T12:33:55.372Z,35.58
2023-03-22T12:36:43.931Z,34.96
2023-03-22T12:39:41.274Z,35.05
2023-03-22T12:42:27.411Z,35.09
2023-03-22T12:45:17.404Z,35.04
2023-03-22T12:48:25.526Z,35.09
2023-03-22T12:51:13.647Z,35.13
2023-03-22T12:54:00.809Z,35.09
2023-03-22T12:56:47.021Z,35.22
2023-03-22T12:59:33.046Z,35.01
2023-03-22T13:02:25.120Z,34.84
2023-03-22T13:05:11.216Z,34.98
2023-03-22T13:07:59.375Z,34.82
2023-03-22T13:10:58.003Z,34.68
2023-03-22T13:13:46.218Z,34.58
2023-03-22T13:16:53.247Z,34.57
2023-03-22T13:19:39.394Z,34.48
2023-03-22T13:22:30.558Z,34.15
2023-03-22T13:25:29.110Z,34.09
2023-03-22T13:28:26.386Z,33.82
2023-03-22T13:31:32.379Z,34.18
2023-03-22T13:34:20.998Z,33.93
2023-03-22T13:37:17.968Z,34.17
2023-03-22T13:40:32.415Z,33.74
2023-03-22T13:43:34.637Z,33.27
2023-03-22T13:46:20.862Z,33.67
2023-03-22T13:49:26.706Z,33.28
2023-03-22T13:52:34.428Z,33.54
2023-03-22T13:55:42.545Z,33.82
2023-03-22T13:58:50.794Z,33.34
2023-03-22T14:01:47.662Z,32.79
2023-03-22T14:04:39.542Z,32.77
2023-03-22T14:07:33.454Z,32.80
2023-03-22T14:10:31.709Z,32.15
2023-03-22T14:13:27.726Z,31.95
2023-03-22T14:16:22.483Z,31.63
2023-03-22T14:19:16.406Z,31.39
